sensor_id;sensor_type;location;lat;lon;timestamp;temperature;humidity
5027;DHT22;2532;52.480;13.354;2023-03-14T00:01:21;14.60;94.50
5027;DHT22;2532;52.480;13.354;2023-03-14T00:03:48;14.60;94.50
5027;DHT22;2532;52.480;13.354;2023-03-14T00:06:16;14.60;94.60
5027;DHT22;2532;52.480;13.354;2023-03-14T00:08:45;14.50;94.60
5027;DHT22;2532;52.480;13.354;2023-03-14T00:11:14;14.50;94.60
5027;DHT22;2532;52.480;13.354;2023-03-14T00:13:42;14.50;94.60
5027;DHT22;2532;52.480;13.354;2023-03-14T00:16:10;14.40;94.60
5027;DHT22;2532;52.480;13.354;2023-03-14T00:18:39;14.40;94.70
5027;DHT22;2532;52.480;13.354;2023-03-14T00:21:07;14.30;94.70
5027;DHT22;2532;52.480;13.354;2023-03-14T00:23:36;14.30;94.80
5027;DHT22;2532;52.480;13.354;2023-03-14T00:26:06;14.20;94.90
5027;DHT22;2532;52.480;13.354;2023-03-14T00:28:35;14.20;94.90
5027;DHT22;2532;52.480;13.354;2023-03-14T00:31:03;14.10;94.90
5027;DHT22;2532;52.480;13.354;2023-03-14T00:33:30;14.20;95.00
5027;DHT22;2532;52.480;13.354;2023-03-14T00:35:58;14.10;95.00
5027;DHT22;2532;52.480;13.354;2023-03-14T00:38:26;14.10;95.10
5027;DHT22;2532;52.480;13.354;2023-03-14T00:40:53;14.10;95.20
5027;DHT22;2532;52.480;13.354;2023-03-14T00:43:22;14.00;95.20
5027;DHT22;2532;52.480;13.354;2023-03-14T00:45:49;14.00;95.30
5027;DHT22;2532;52.480;13.354;2023-03-14T00:48:16;13.90;95.30
5027;DHT22;2532;52.480;13.354;2023-03-14T00:50:44;14.00;95.50
5027;DHT22;2532;52.480;13.354;2023-03-14T00:53:11;13.90;95.50
5027;DHT22;2532;52.480;13.354;2023-03-14T00:55:39;13.90;95.60
5027;DHT22;2532;52.480;13.354;2023-03-14T00:58:08;13.90;95.70
5027;DHT22;2532;52.480;13.354;2023-03-14T01:00:36;13.80;95.80
5027;DHT22;2532;52.480;13.354;2023-03-14T01:03:04;13.80;95.80
5027;DHT22;2532;52.480;13.354;2023-03-14T01:05:32;13.80;95.90
5027;DHT22;2532;52.480;13.354;2023-03-14T01:07:59;13.70;95.90
5027;DHT22;2532;52.480;13.354;2023-03-14T01:10:26;13.70;96.00
5027;DHT22;2532;52.480;13.354;2023-03-14T01:12:53;13.70;96.00
5027;DHT22;2532;52.480;13.354;2023-03-14T01:15:20;13.60;96.10
5027;DHT22;2532;52.480;13.354;2023-03-14T01:17:48;13.60;96.10
5027;DHT22;2532;52.480;13.354;2023-03-14T01:20:17;13.60;96.20
5027;DHT22;2532;52.480;13.354;2023-03-14T01:22:44;13.50;96.20
5027;DHT22;2532;52.480;13.354;2023-03-14T01:25:15;13.50;96.20
5027;DHT22;2532;52.480;13.354;2023-03-14T01:27:43;13.50;96.20
5027;DHT22;2532;52.480;13.354;2023-03-14T01:30:12;13.50;96.20
5027;DHT22;2532;52.480;13.354;2023-03-14T01:32:39;13.50;96.20
5027;DHT22;2532;52.480;13.354;2023-03-14T01:35:08;13.50;96.30
5027;DHT22;2532;52.480;13.354;2023-03-14T01:37:35;13.60;96.30
5027;DHT22;2532;52.480;13.354;2023-03-14T01:40:03;13.50;96.30
5027;DHT22;2532;52.480;13.354;2023-03-14T01:42:31;13.50;96.30
5027;DHT22;2532;52.480;13.354;2023-03-14T01:45:00;13.50;96.40
5027;DHT22;2532;52.480;13.354;2023-03-14T01:47:27;13.50;96.40
5027;DHT22;2532;52.480;13.354;2023-03-14T01:49:57;13.50;96.50
5027;DHT22;2532;52.480;13.354;2023-03-14T01:52:29;13.50;96.50
5027;DHT22;2532;52.480;13.354;2023-03-14T01:55:02;13.50;96.50
5027;DHT22;2532;52.480;13.354;2023-03-14T01:57:33;13.50;96.50
5027;DHT22;2532;52.480;13.354;2023-03-14T02:00:04;13.50;96.50
5027;DHT22;2532;52.480;13.354;2023-03-14T02:02:37;13.50;96.50
5027;DHT22;2532;52.480;13.354;2023-03-14T02:05:05;13.50;96.50
5027;DHT22;2532;52.480;13.354;2023-03-14T02:07:37;13.40;96.40
5027;DHT22;2532;52.480;13.354;2023-03-14T02:10:08;13.50;96.50
5027;DHT22;2532;52.480;13.354;2023-03-14T02:12:36;13.40;96.40
5027;DHT22;2532;52.480;13.354;2023-03-14T02:15:04;13.40;96.40
5027;DHT22;2532;52.480;13.354;2023-03-14T02:17:31;13.40;96.40
5027;DHT22;2532;52.480;13.354;2023-03-14T02:20:13;13.40;96.40
5027;DHT22;2532;52.480;13.354;2023-03-14T02:22:46;13.40;96.40
5027;DHT22;2532;52.480;13.354;2023-03-14T02:25:18;13.40;96.40
5027;DHT22;2532;52.480;13.354;2023-03-14T02:27:48;13.40;96.40
5027;DHT22;2532;52.480;13.354;2023-03-14T02:30:17;13.40;96.40
5027;DHT22;2532;52.480;13.354;2023-03-14T02:32:47;13.40;96.70
5027;DHT22;2532;52.480;13.354;2023-03-14T02:35:19;13.40;96.30
5027;DHT22;2532;52.480;13.354;2023-03-14T02:37:51;13.40;96.30
5027;DHT22;2532;52.480;13.354;2023-03-14T02:40:18;13.40;96.40
5027;DHT22;2532;52.480;13.354;2023-03-14T02:42:45;13.40;96.30
5027;DHT22;2532;52.480;13.354;2023-03-14T02:45:36;13.40;96.30
5027;DHT22;2532;52.480;13.354;2023-03-14T02:48:06;13.40;96.30
5027;DHT22;2532;52.480;13.354;2023-03-14T02:50:34;13.40;96.30
5027;DHT22;2532;52.480;13.354;2023-03-14T02:53:01;13.30;96.30
5027;DHT22;2532;52.480;13.354;2023-03-14T02:55:28;13.30;96.30
5027;DHT22;2532;52.480;13.354;2023-03-14T02:57:55;13.30;96.40
5027;DHT22;2532;52.480;13.354;2023-03-14T03:00:22;13.30;96.20
5027;DHT22;2532;52.480;13.354;2023-03-14T03:02:54;13.30;96.20
5027;DHT22;2532;52.480;13.354;2023-03-14T03:05:20;13.30;96.20
5027;DHT22;2532;52.480;13.354;2023-03-14T03:07:47;13.30;96.20
5027;DHT22;2532;52.480;13.354;2023-03-14T03:10:15;13.30;96.10
5027;DHT22;2532;52.480;13.354;2023-03-14T03:12:41;13.30;96.10
5027;DHT22;2532;52.480;13.354;2023-03-14T03:15:10;13.40;96.10
5027;DHT22;2532;52.480;13.354;2023-03-14T03:17:37;13.40;96.10
5027;DHT22;2532;52.480;13.354;2023-03-14T03:20:06;13.30;96.00
5027;DHT22;2532;52.480;13.354;2023-03-14T03:22:35;13.30;96.00
5027;DHT22;2532;52.480;13.354;2023-03-14T03:25:02;13.30;96.10
5027;DHT22;2532;52.480;13.354;2023-03-14T03:27:30;13.30;96.00
5027;DHT22;2532;52.480;13.354;2023-03-14T03:29:57;13.30;96.00
5027;DHT22;2532;52.480;13.354;2023-03-14T03:32:24;13.30;96.00
5027;DHT22;2532;52.480;13.354;2023-03-14T03:34:52;13.30;96.00
5027;DHT22;2532;52.480;13.354;2023-03-14T03:37:21;13.30;96.00
5027;DHT22;2532;52.480;13.354;2023-03-14T03:39:51;13.20;96.00
5027;DHT22;2532;52.480;13.354;2023-03-14T03:42:18;13.20;96.00
5027;DHT22;2532;52.480;13.354;2023-03-14T03:44:46;13.30;96.00
5027;DHT22;2532;52.480;13.354;2023-03-14T03:47:14;13.20;95.90
5027;DHT22;2532;52.480;13.354;2023-03-14T03:49:41;13.20;96.00
5027;DHT22;2532;52.480;13.354;2023-03-14T03:52:08;13.20;96.00
5027;DHT22;2532;52.480;13.354;2023-03-14T03:54:36;13.20;96.00
5027;DHT22;2532;52.480;13.354;2023-03-14T03:57:03;13.10;96.00
5027;DHT22;2532;52.480;13.354;2023-03-14T03:59:30;13.20;96.00
5027;DHT22;2532;52.480;13.354;2023-03-14T04:01:57;13.10;95.90
5027;DHT22;2532;52.480;13.354;2023-03-14T04:04:24;13.10;95.90
5027;DHT22;2532;52.480;13.354;2023-03-14T04:06:51;13.10;95.90
5027;DHT22;2532;52.480;13.354;2023-03-14T04:09:18;13.10;95.90
5027;DHT22;2532;52.480;13.354;2023-03-14T04:11:46;13.10;95.90
5027;DHT22;2532;52.480;13.354;2023-03-14T04:14:13;13.10;95.90
5027;DHT22;2532;52.480;13.354;2023-03-14T04:16:40;13.10;95.90
5027;DHT22;2532;52.480;13.354;2023-03-14T04:19:07;13.10;95.90
5027;DHT22;2532;52.480;13.354;2023-03-14T04:21:33;13.10;95.90
5027;DHT22;2532;52.480;13.354;2023-03-14T04:24:00;13.10;95.80
5027;DHT22;2532;52.480;13.354;2023-03-14T04:26:27;13.10;95.80
5027;DHT22;2532;52.480;13.354;2023-03-14T04:28:56;13.10;95.80
5027;DHT22;2532;52.480;13.354;2023-03-14T04:31:23;13.00;95.70
5027;DHT22;2532;52.480;13.354;2023-03-14T04:33:51;13.10;95.70
5027;DHT22;2532;52.480;13.354;2023-03-14T04:36:18;13.10;95.70
5027;DHT22;2532;52.480;13.354;2023-03-14T04:38:45;13.10;95.60
5027;DHT22;2532;52.480;13.354;2023-03-14T04:41:12;13.00;95.60
5027;DHT22;2532;52.480;13.354;2023-03-14T04:43:39;13.00;95.60
5027;DHT22;2532;52.480;13.354;2023-03-14T04:46:07;13.10;95.60
5027;DHT22;2532;52.480;13.354;2023-03-14T04:48:34;13.10;95.60
5027;DHT22;2532;52.480;13.354;2023-03-14T04:51:03;13.10;95.50
5027;DHT22;2532;52.480;13.354;2023-03-14T04:53:30;13.00;95.40
5027;DHT22;2532;52.480;13.354;2023-03-14T04:55:57;13.00;95.40
5027;DHT22;2532;52.480;13.354;2023-03-14T04:58:25;13.10;95.40
5027;DHT22;2532;52.480;13.354;2023-03-14T05:00:52;13.10;95.40
5027;DHT22;2532;52.480;13.354;2023-03-14T05:03:20;13.10;95.40
5027;DHT22;2532;52.480;13.354;2023-03-14T05:05:47;13.10;95.30
5027;DHT22;2532;52.480;13.354;2023-03-14T05:08:14;13.10;95.30
5027;DHT22;2532;52.480;13.354;2023-03-14T05:10:40;13.10;95.30
5027;DHT22;2532;52.480;13.354;2023-03-14T05:13:07;13.00;95.30
5027;DHT22;2532;52.480;13.354;2023-03-14T05:15:34;13.00;95.30
5027;DHT22;2532;52.480;13.354;2023-03-14T05:18:01;13.00;95.30
5027;DHT22;2532;52.480;13.354;2023-03-14T05:20:30;13.00;95.20
5027;DHT22;2532;52.480;13.354;2023-03-14T05:22:57;13.00;95.20
5027;DHT22;2532;52.480;13.354;2023-03-14T05:25:24;13.00;95.10
5027;DHT22;2532;52.480;13.354;2023-03-14T05:27:53;13.00;95.10
5027;DHT22;2532;52.480;13.354;2023-03-14T05:30:20;13.00;95.10
5027;DHT22;2532;52.480;13.354;2023-03-14T05:32:48;13.00;95.00
5027;DHT22;2532;52.480;13.354;2023-03-14T05:35:15;13.00;95.00
5027;DHT22;2532;52.480;13.354;2023-03-14T05:37:43;13.00;95.00
5027;DHT22;2532;52.480;13.354;2023-03-14T05:40:11;13.00;94.90
5027;DHT22;2532;52.480;13.354;2023-03-14T05:42:38;13.00;94.80
5027;DHT22;2532;52.480;13.354;2023-03-14T05:45:05;13.00;94.80
5027;DHT22;2532;52.480;13.354;2023-03-14T05:47:32;13.00;94.80
5027;DHT22;2532;52.480;13.354;2023-03-14T05:49:59;13.00;94.70
5027;DHT22;2532;52.480;13.354;2023-03-14T05:52:26;13.00;94.70
5027;DHT22;2532;52.480;13.354;2023-03-14T05:54:55;13.00;94.60
5027;DHT22;2532;52.480;13.354;2023-03-14T05:57:22;13.00;94.50
5027;DHT22;2532;52.480;13.354;2023-03-14T05:59:48;13.00;94.40
5027;DHT22;2532;52.480;13.354;2023-03-14T06:02:15;12.90;94.40
5027;DHT22;2532;52.480;13.354;2023-03-14T06:04:42;13.00;94.40
5027;DHT22;2532;52.480;13.354;2023-03-14T06:07:09;13.00;94.30
5027;DHT22;2532;52.480;13.354;2023-03-14T06:09:36;13.00;94.20
5027;DHT22;2532;52.480;13.354;2023-03-14T06:12:06;13.00;94.10
5027;DHT22;2532;52.480;13.354;2023-03-14T06:14:33;13.00;94.10
5027;DHT22;2532;52.480;13.354;2023-03-14T06:17:00;13.10;93.90
5027;DHT22;2532;52.480;13.354;2023-03-14T06:19:27;13.10;93.80
5027;DHT22;2532;52.480;13.354;2023-03-14T06:21:54;13.10;93.80
5027;DHT22;2532;52.480;13.354;2023-03-14T06:24:21;13.10;93.60
5027;DHT22;2532;52.480;13.354;2023-03-14T06:26:48;13.10;93.60
5027;DHT22;2532;52.480;13.354;2023-03-14T06:29:16;13.20;93.50
5027;DHT22;2532;52.480;13.354;2023-03-14T06:31:43;13.20;93.40
5027;DHT22;2532;52.480;13.354;2023-03-14T06:34:10;13.20;93.60
5027;DHT22;2532;52.480;13.354;2023-03-14T06:36:37;13.20;93.60
5027;DHT22;2532;52.480;13.354;2023-03-14T06:39:04;13.30;93.20
5027;DHT22;2532;52.480;13.354;2023-03-14T06:41:31;13.30;93.20
5027;DHT22;2532;52.480;13.354;2023-03-14T06:43:58;13.30;93.20
5027;DHT22;2532;52.480;13.354;2023-03-14T06:46:26;13.30;93.10
5027;DHT22;2532;52.480;13.354;2023-03-14T06:48:53;13.30;93.10
5027;DHT22;2532;52.480;13.354;2023-03-14T06:51:20;13.30;93.00
5027;DHT22;2532;52.480;13.354;2023-03-14T06:53:47;13.30;92.90
5027;DHT22;2532;52.480;13.354;2023-03-14T06:56:14;13.30;92.90
5027;DHT22;2532;52.480;13.354;2023-03-14T06:58:41;13.30;92.90
5027;DHT22;2532;52.480;13.354;2023-03-14T07:01:17;13.40;92.80
5027;DHT22;2532;52.480;13.354;2023-03-14T07:03:47;13.40;92.90
5027;DHT22;2532;52.480;13.354;2023-03-14T07:06:14;13.40;92.70
5027;DHT22;2532;52.480;13.354;2023-03-14T07:08:41;13.50;92.80
5027;DHT22;2532;52.480;13.354;2023-03-14T07:11:08;13.50;92.70
5027;DHT22;2532;52.480;13.354;2023-03-14T07:13:36;13.60;92.70
5027;DHT22;2532;52.480;13.354;2023-03-14T07:16:04;13.60;92.60
5027;DHT22;2532;52.480;13.354;2023-03-14T07:18:31;13.60;92.50
5027;DHT22;2532;52.480;13.354;2023-03-14T07:21:00;13.70;92.90
5027;DHT22;2532;52.480;13.354;2023-03-14T07:23:27;13.70;92.60
5027;DHT22;2532;52.480;13.354;2023-03-14T07:25:55;13.70;92.50
5027;DHT22;2532;52.480;13.354;2023-03-14T07:28:22;13.70;92.50
5027;DHT22;2532;52.480;13.354;2023-03-14T07:30:49;13.60;92.50
5027;DHT22;2532;52.480;13.354;2023-03-14T07:33:16;13.70;92.50
5027;DHT22;2532;52.480;13.354;2023-03-14T07:35:43;13.70;92.50
5027;DHT22;2532;52.480;13.354;2023-03-14T07:38:11;13.70;92.50
5027;DHT22;2532;52.480;13.354;2023-03-14T07:40:38;13.70;92.60
5027;DHT22;2532;52.480;13.354;2023-03-14T07:43:05;13.70;92.60
5027;DHT22;2532;52.480;13.354;2023-03-14T07:45:32;13.70;92.50
5027;DHT22;2532;52.480;13.354;2023-03-14T07:47:59;13.70;92.50
5027;DHT22;2532;52.480;13.354;2023-03-14T07:50:28;13.70;92.50
5027;DHT22;2532;52.480;13.354;2023-03-14T07:52:55;13.70;92.60
5027;DHT22;2532;52.480;13.354;2023-03-14T07:55:23;13.70;92.60
5027;DHT22;2532;52.480;13.354;2023-03-14T07:57:50;13.70;92.60
5027;DHT22;2532;52.480;13.354;2023-03-14T08:00:18;13.70;92.50
5027;DHT22;2532;52.480;13.354;2023-03-14T08:02:45;13.80;92.50
5027;DHT22;2532;52.480;13.354;2023-03-14T08:05:12;13.80;92.50
5027;DHT22;2532;52.480;13.354;2023-03-14T08:07:38;13.90;92.50
5027;DHT22;2532;52.480;13.354;2023-03-14T08:10:06;14.00;92.40
5027;DHT22;2532;52.480;13.354;2023-03-14T08:12:35;14.00;92.30
5027;DHT22;2532;52.480;13.354;2023-03-14T08:15:02;14.10;92.30
5027;DHT22;2532;52.480;13.354;2023-03-14T08:17:29;14.10;92.20
5027;DHT22;2532;52.480;13.354;2023-03-14T08:19:56;14.10;92.00
5027;DHT22;2532;52.480;13.354;2023-03-14T08:22:23;14.10;92.00
5027;DHT22;2532;52.480;13.354;2023-03-14T08:24:50;14.20;92.00
5027;DHT22;2532;52.480;13.354;2023-03-14T08:27:17;14.20;91.90
5027;DHT22;2532;52.480;13.354;2023-03-14T08:29:45;14.20;91.90
5027;DHT22;2532;52.480;13.354;2023-03-14T08:32:12;14.30;91.90
5027;DHT22;2532;52.480;13.354;2023-03-14T08:34:39;14.30;91.90
5027;DHT22;2532;52.480;13.354;2023-03-14T08:37:06;14.30;91.80
5027;DHT22;2532;52.480;13.354;2023-03-14T08:39:33;14.40;91.80
5027;DHT22;2532;52.480;13.354;2023-03-14T08:42:00;14.40;91.70
5027;DHT22;2532;52.480;13.354;2023-03-14T08:44:27;14.40;91.70
5027;DHT22;2532;52.480;13.354;2023-03-14T08:46:55;14.40;91.70
5027;DHT22;2532;52.480;13.354;2023-03-14T08:49:22;14.50;91.60
5027;DHT22;2532;52.480;13.354;2023-03-14T08:51:49;14.50;91.60
5027;DHT22;2532;52.480;13.354;2023-03-14T08:54:16;14.50;91.50
5027;DHT22;2532;52.480;13.354;2023-03-14T08:56:44;14.50;91.50
5027;DHT22;2532;52.480;13.354;2023-03-14T08:59:11;14.50;91.30
5027;DHT22;2532;52.480;13.354;2023-03-14T09:01:38;14.50;91.10
5027;DHT22;2532;52.480;13.354;2023-03-14T09:04:06;14.40;91.10
5027;DHT22;2532;52.480;13.354;2023-03-14T09:06:33;14.50;91.30
5027;DHT22;2532;52.480;13.354;2023-03-14T09:09:00;14.50;91.30
5027;DHT22;2532;52.480;13.354;2023-03-14T09:11:27;14.50;91.20
5027;DHT22;2532;52.480;13.354;2023-03-14T09:13:54;14.60;91.20
5027;DHT22;2532;52.480;13.354;2023-03-14T09:16:20;14.70;91.10
5027;DHT22;2532;52.480;13.354;2023-03-14T09:18:47;14.80;91.10
5027;DHT22;2532;52.480;13.354;2023-03-14T09:21:16;14.90;91.10
5027;DHT22;2532;52.480;13.354;2023-03-14T09:23:43;15.00;91.00
5027;DHT22;2532;52.480;13.354;2023-03-14T09:26:11;15.00;90.60
5027;DHT22;2532;52.480;13.354;2023-03-14T09:28:38;15.00;90.50
5027;DHT22;2532;52.480;13.354;2023-03-14T09:31:06;15.00;90.60
5027;DHT22;2532;52.480;13.354;2023-03-14T09:33:33;15.00;90.30
5027;DHT22;2532;52.480;13.354;2023-03-14T09:36:01;15.10;90.20
5027;DHT22;2532;52.480;13.354;2023-03-14T09:38:30;15.10;90.30
5027;DHT22;2532;52.480;13.354;2023-03-14T09:41:00;15.10;90.00
5027;DHT22;2532;52.480;13.354;2023-03-14T09:43:30;15.20;89.80
5027;DHT22;2532;52.480;13.354;2023-03-14T09:46:00;15.20;89.60
5027;DHT22;2532;52.480;13.354;2023-03-14T09:48:30;15.20;89.50
5027;DHT22;2532;52.480;13.354;2023-03-14T09:51:01;15.20;89.70
5027;DHT22;2532;52.480;13.354;2023-03-14T09:53:36;15.30;89.80
5027;DHT22;2532;52.480;13.354;2023-03-14T09:56:04;15.30;88.90
5027;DHT22;2532;52.480;13.354;2023-03-14T09:58:36;15.30;88.90
5027;DHT22;2532;52.480;13.354;2023-03-14T10:01:03;15.30;89.10
5027;DHT22;2532;52.480;13.354;2023-03-14T10:03:32;15.30;89.00
5027;DHT22;2532;52.480;13.354;2023-03-14T10:06:00;15.30;88.60
5027;DHT22;2532;52.480;13.354;2023-03-14T10:08:27;15.30;88.70
5027;DHT22;2532;52.480;13.354;2023-03-14T10:10:56;15.30;88.90
5027;DHT22;2532;52.480;13.354;2023-03-14T10:13:26;15.30;89.40
5027;DHT22;2532;52.480;13.354;2023-03-14T10:15:58;15.30;88.20
5027;DHT22;2532;52.480;13.354;2023-03-14T10:18:28;15.30;88.40
5027;DHT22;2532;52.480;13.354;2023-03-14T10:21:05;15.30;87.90
5027;DHT22;2532;52.480;13.354;2023-03-14T10:23:34;15.40;87.70
5027;DHT22;2532;52.480;13.354;2023-03-14T10:26:07;15.40;87.20
5027;DHT22;2532;52.480;13.354;2023-03-14T10:28:38;15.40;87.40
5027;DHT22;2532;52.480;13.354;2023-03-14T10:31:06;15.40;87.60
5027;DHT22;2532;52.480;13.354;2023-03-14T10:33:34;15.40;87.60
5027;DHT22;2532;52.480;13.354;2023-03-14T10:36:03;15.40;86.90
5027;DHT22;2532;52.480;13.354;2023-03-14T10:38:33;15.40;86.40
5027;DHT22;2532;52.480;13.354;2023-03-14T10:41:13;15.40;86.40
5027;DHT22;2532;52.480;13.354;2023-03-14T10:43:41;15.40;86.10
5027;DHT22;2532;52.480;13.354;2023-03-14T10:46:11;15.40;86.10
5027;DHT22;2532;52.480;13.354;2023-03-14T10:48:40;15.40;86.40
5027;DHT22;2532;52.480;13.354;2023-03-14T10:51:09;15.40;86.00
5027;DHT22;2532;52.480;13.354;2023-03-14T10:53:42;15.40;85.70
5027;DHT22;2532;52.480;13.354;2023-03-14T10:56:14;15.40;85.70
5027;DHT22;2532;52.480;13.354;2023-03-14T10:58:43;15.40;85.70
5027;DHT22;2532;52.480;13.354;2023-03-14T11:01:30;15.40;85.70
5027;DHT22;2532;52.480;13.354;2023-03-14T11:04:02;15.40;85.60
5027;DHT22;2532;52.480;13.354;2023-03-14T11:06:36;15.40;85.70
5027;DHT22;2532;52.480;13.354;2023-03-14T11:09:12;15.50;86.00
5027;DHT22;2532;52.480;13.354;2023-03-14T11:11:46;15.50;85.80
5027;DHT22;2532;52.480;13.354;2023-03-14T11:14:21;15.50;86.00
5027;DHT22;2532;52.480;13.354;2023-03-14T11:16:55;15.50;86.30
5027;DHT22;2532;52.480;13.354;2023-03-14T11:19:42;15.50;86.20
5027;DHT22;2532;52.480;13.354;2023-03-14T11:22:18;15.50;86.10
5027;DHT22;2532;52.480;13.354;2023-03-14T11:25:00;15.50;86.40
5027;DHT22;2532;52.480;13.354;2023-03-14T11:27:39;15.50;86.50
5027;DHT22;2532;52.480;13.354;2023-03-14T11:30:17;15.50;86.70
5027;DHT22;2532;52.480;13.354;2023-03-14T11:32:46;15.50;87.00
5027;DHT22;2532;52.480;13.354;2023-03-14T11:35:24;15.50;87.10
5027;DHT22;2532;52.480;13.354;2023-03-14T11:38:13;15.40;87.20
5027;DHT22;2532;52.480;13.354;2023-03-14T11:40:41;15.40;87.60
5027;DHT22;2532;52.480;13.354;2023-03-14T11:43:14;15.30;87.70
5027;DHT22;2532;52.480;13.354;2023-03-14T11:45:42;15.30;88.40
5027;DHT22;2532;52.480;13.354;2023-03-14T11:48:22;15.30;89.40
5027;DHT22;2532;52.480;13.354;2023-03-14T11:50:53;15.30;89.40
5027;DHT22;2532;52.480;13.354;2023-03-14T11:53:25;15.30;89.40
5027;DHT22;2532;52.480;13.354;2023-03-14T11:55:55;15.30;89.60
5027;DHT22;2532;52.480;13.354;2023-03-14T11:58:26;15.30;89.80
5027;DHT22;2532;52.480;13.354;2023-03-14T12:00:54;15.30;89.80
5027;DHT22;2532;52.480;13.354;2023-03-14T12:03:29;15.30;90.00
5027;DHT22;2532;52.480;13.354;2023-03-14T12:06:04;15.30;90.10
5027;DHT22;2532;52.480;13.354;2023-03-14T12:08:42;15.30;90.20
5027;DHT22;2532;52.480;13.354;2023-03-14T12:11:20;15.30;90.20
5027;DHT22;2532;52.480;13.354;2023-03-14T12:13:52;15.30;90.20
5027;DHT22;2532;52.480;13.354;2023-03-14T12:16:35;15.30;90.00
5027;DHT22;2532;52.480;13.354;2023-03-14T12:22:24;15.40;90.20
5027;DHT22;2532;52.480;13.354;2023-03-14T12:24:56;15.50;90.10
5027;DHT22;2532;52.480;13.354;2023-03-14T12:30:39;15.60;90.00
5027;DHT22;2532;52.480;13.354;2023-03-14T12:33:28;15.50;90.00
5027;DHT22;2532;52.480;13.354;2023-03-14T12:36:11;15.60;90.10
5027;DHT22;2532;52.480;13.354;2023-03-14T12:39:10;15.60;90.40
5027;DHT22;2532;52.480;13.354;2023-03-14T12:41:46;15.60;90.70
5027;DHT22;2532;52.480;13.354;2023-03-14T12:44:41;15.60;90.90
5027;DHT22;2532;52.480;13.354;2023-03-14T12:50:19;15.70;91.10
5027;DHT22;2532;52.480;13.354;2023-03-14T12:53:07;15.70;91.40
5027;DHT22;2532;52.480;13.354;2023-03-14T12:55:41;15.70;91.30
5027;DHT22;2532;52.480;13.354;2023-03-14T12:58:16;15.70;90.80
5027;DHT22;2532;52.480;13.354;2023-03-14T13:00:54;15.80;90.60
5027;DHT22;2532;52.480;13.354;2023-03-14T13:03:25;15.70;90.70
5027;DHT22;2532;52.480;13.354;2023-03-14T13:05:56;15.70;91.10
5027;DHT22;2532;52.480;13.354;2023-03-14T13:08:38;15.70;91.60
5027;DHT22;2532;52.480;13.354;2023-03-14T13:11:09;15.50;92.00
5027;DHT22;2532;52.480;13.354;2023-03-14T13:13:41;15.30;92.70
5027;DHT22;2532;52.480;13.354;2023-03-14T13:16:14;15.10;93.40
5027;DHT22;2532;52.480;13.354;2023-03-14T13:18:43;14.90;93.80
5027;DHT22;2532;52.480;13.354;2023-03-14T13:21:15;14.80;94.00
5027;DHT22;2532;52.480;13.354;2023-03-14T13:23:55;14.70;94.30
5027;DHT22;2532;52.480;13.354;2023-03-14T13:26:24;14.70;94.60
5027;DHT22;2532;52.480;13.354;2023-03-14T13:28:53;14.60;94.80
5027;DHT22;2532;52.480;13.354;2023-03-14T13:31:23;14.60;95.10
5027;DHT22;2532;52.480;13.354;2023-03-14T13:34:00;14.70;95.30
5027;DHT22;2532;52.480;13.354;2023-03-14T13:36:30;14.80;95.40
5027;DHT22;2532;52.480;13.354;2023-03-14T13:38:59;15.00;95.30
5027;DHT22;2532;52.480;13.354;2023-03-14T13:41:27;15.00;95.20
5027;DHT22;2532;52.480;13.354;2023-03-14T13:44:01;15.20;95.40
5027;DHT22;2532;52.480;13.354;2023-03-14T13:46:29;15.30;95.40
5027;DHT22;2532;52.480;13.354;2023-03-14T13:48:58;15.40;94.50
5027;DHT22;2532;52.480;13.354;2023-03-14T13:51:28;15.50;94.30
5027;DHT22;2532;52.480;13.354;2023-03-14T13:53:58;15.60;94.10
5027;DHT22;2532;52.480;13.354;2023-03-14T13:56:27;15.70;93.20
5027;DHT22;2532;52.480;13.354;2023-03-14T13:58:54;15.80;92.70
5027;DHT22;2532;52.480;13.354;2023-03-14T14:01:23;16.00;92.30
5027;DHT22;2532;52.480;13.354;2023-03-14T14:03:53;16.10;91.90
5027;DHT22;2532;52.480;13.354;2023-03-14T14:06:31;16.20;91.70
5027;DHT22;2532;52.480;13.354;2023-03-14T14:09:01;16.30;91.20
5027;DHT22;2532;52.480;13.354;2023-03-14T14:11:38;16.40;91.00
5027;DHT22;2532;52.480;13.354;2023-03-14T14:14:11;16.40;91.10
5027;DHT22;2532;52.480;13.354;2023-03-14T14:16:42;16.50;91.00
5027;DHT22;2532;52.480;13.354;2023-03-14T14:19:09;16.60;90.70
5027;DHT22;2532;52.480;13.354;2023-03-14T14:21:38;16.50;90.20
5027;DHT22;2532;52.480;13.354;2023-03-14T14:24:07;16.60;90.20
5027;DHT22;2532;52.480;13.354;2023-03-14T14:26:34;16.50;90.50
5027;DHT22;2532;52.480;13.354;2023-03-14T14:29:04;16.40;90.60
5027;DHT22;2532;52.480;13.354;2023-03-14T14:31:31;16.30;90.70
5027;DHT22;2532;52.480;13.354;2023-03-14T14:33:59;16.20;90.90
5027;DHT22;2532;52.480;13.354;2023-03-14T14:36:29;16.10;91.00
5027;DHT22;2532;52.480;13.354;2023-03-14T14:39:00;16.00;90.60
5027;DHT22;2532;52.480;13.354;2023-03-14T14:41:29;16.00;90.80
5027;DHT22;2532;52.480;13.354;2023-03-14T14:43:58;16.00;90.60
5027;DHT22;2532;52.480;13.354;2023-03-14T14:46:28;15.90;90.50
5027;DHT22;2532;52.480;13.354;2023-03-14T14:48:57;15.90;90.60
5027;DHT22;2532;52.480;13.354;2023-03-14T14:51:30;15.90;90.50
5027;DHT22;2532;52.480;13.354;2023-03-14T14:54:17;15.80;90.50
5027;DHT22;2532;52.480;13.354;2023-03-14T14:56:49;15.90;90.70
5027;DHT22;2532;52.480;13.354;2023-03-14T14:59:22;15.80;90.60
5027;DHT22;2532;52.480;13.354;2023-03-14T15:01:49;15.80;90.70
5027;DHT22;2532;52.480;13.354;2023-03-14T15:04:17;15.80;90.60
5027;DHT22;2532;52.480;13.354;2023-03-14T15:06:46;15.70;90.40
5027;DHT22;2532;52.480;13.354;2023-03-14T15:09:16;15.70;90.60
5027;DHT22;2532;52.480;13.354;2023-03-14T15:11:44;15.70;90.60
5027;DHT22;2532;52.480;13.354;2023-03-14T15:14:11;15.60;90.60
5027;DHT22;2532;52.480;13.354;2023-03-14T15:16:39;15.60;90.70
5027;DHT22;2532;52.480;13.354;2023-03-14T15:19:12;15.50;91.60
5027;DHT22;2532;52.480;13.354;2023-03-14T15:21:39;13.90;90.70
5027;DHT22;2532;52.480;13.354;2023-03-14T15:24:08;12.40;92.10
5027;DHT22;2532;52.480;13.354;2023-03-14T15:26:36;11.30;93.70
5027;DHT22;2532;52.480;13.354;2023-03-14T15:29:04;10.30;95.20
5027;DHT22;2532;52.480;13.354;2023-03-14T15:31:34;9.10;96.30
5027;DHT22;2532;52.480;13.354;2023-03-14T15:34:01;8.50;97.40
5027;DHT22;2532;52.480;13.354;2023-03-14T15:36:30;7.90;98.20
5027;DHT22;2532;52.480;13.354;2023-03-14T15:38:58;7.80;99.40
5027;DHT22;2532;52.480;13.354;2023-03-14T15:41:26;7.60;99.70
5027;DHT22;2532;52.480;13.354;2023-03-14T15:43:55;7.30;99.70
5027;DHT22;2532;52.480;13.354;2023-03-14T15:46:22;7.20;99.80
5027;DHT22;2532;52.480;13.354;2023-03-14T15:48:49;7.10;99.90
5027;DHT22;2532;52.480;13.354;2023-03-14T15:51:17;6.90;99.90
5027;DHT22;2532;52.480;13.354;2023-03-14T15:53:44;6.70;99.90
5027;DHT22;2532;52.480;13.354;2023-03-14T15:56:13;6.50;99.90
5027;DHT22;2532;52.480;13.354;2023-03-14T15:58:40;6.20;99.50
5027;DHT22;2532;52.480;13.354;2023-03-14T16:01:09;5.90;99.50
5027;DHT22;2532;52.480;13.354;2023-03-14T16:03:36;5.80;99.50
5027;DHT22;2532;52.480;13.354;2023-03-14T16:06:04;5.50;99.50
5027;DHT22;2532;52.480;13.354;2023-03-14T16:08:31;5.40;99.70
5027;DHT22;2532;52.480;13.354;2023-03-14T16:10:59;5.30;99.60